createdAt,value
2019-04-14T00:00:27.165Z,43.20
2019-04-14T00:02:57.711Z,44.53
2019-04-14T00:05:25.992Z,42.95
2019-04-14T00:07:54.207Z,44.30
2019-04-14T00:10:22.585Z,44.25
2019-04-14T00:12:51.445Z,42.70
2019-04-14T00:15:29.464Z,45.28
2019-04-14T00:17:50.366Z,45.40
2019-04-14T00:20:18.678Z,42.60
2019-04-14T00:22:46.908Z,43.60
2019-04-14T00:25:15.197Z,44.83
2019-04-14T00:27:43.406Z,43.45
2019-04-14T00:30:11.897Z,45.85
2019-04-14T00:32:58.014Z,45.92
2019-04-14T00:35:45.634Z,43.98
2019-04-14T00:38:21.789Z,44.85
2019-04-14T00:40:58.312Z,45.38
2019-04-14T00:43:43.898Z,44.35
2019-04-14T00:46:16.937Z,44.48
2019-04-14T00:48:47.394Z,44.40
2019-04-14T00:51:15.733Z,45.10
2019-04-14T00:53:44.598Z,44.65
2019-04-14T00:56:12.936Z,45.17
2019-04-14T00:58:41.160Z,45.90
2019-04-14T01:01:09.360Z,44.08
2019-04-14T01:03:37.575Z,43.73
2019-04-14T01:06:05.779Z,42.20
2019-04-14T01:08:33.997Z,42.78
2019-04-14T01:11:03.077Z,43.85
2019-04-14T01:13:31.406Z,43.68
2019-04-14T01:16:07.207Z,46.28
2019-04-14T01:18:29.832Z,43.90
2019-04-14T01:20:58.155Z,40.17
2019-04-14T01:23:26.367Z,41.15
2019-04-14T01:25:56.316Z,42.73
2019-04-14T01:28:24.787Z,40.05
2019-04-14T01:30:53.010Z,44.08
2019-04-14T01:33:21.204Z,42.53
2019-04-14T01:35:49.420Z,40.85
2019-04-14T01:38:17.642Z,39.42
2019-04-14T01:40:46.661Z,39.95
2019-04-14T01:43:15.028Z,41.35
2019-04-14T01:45:43.314Z,39.70
2019-04-14T01:48:12.657Z,38.78
2019-04-14T01:50:45.545Z,37.83
2019-04-14T01:53:16.108Z,39.80
2019-04-14T01:58:16.418Z,39.93
2019-04-14T02:00:46.683Z,38.90
2019-04-14T02:03:15.068Z,40.40
2019-04-14T02:05:43.268Z,40.15
2019-04-14T02:08:11.489Z,39.27
2019-04-14T02:10:39.697Z,38.55
2019-04-14T02:13:09.190Z,37.83
2019-04-14T02:15:37.616Z,34.97
2019-04-14T02:18:05.837Z,38.23
2019-04-14T02:20:34.048Z,36.55
2019-04-14T02:23:02.276Z,38.10
2019-04-14T02:25:31.669Z,36.25
2019-04-14T02:28:00.178Z,35.68
2019-04-14T02:30:36.266Z,34.50
2019-04-14T02:33:33.792Z,39.15
2019-04-14T02:36:05.760Z,38.05
2019-04-14T02:38:34.211Z,38.17
2019-04-14T02:41:04.295Z,35.15
2019-04-14T02:43:29.682Z,36.80
2019-04-14T02:48:37.748Z,34.05
2019-04-14T02:50:56.092Z,36.77
2019-04-14T02:53:39.319Z,35.95
2019-04-14T02:56:01.978Z,36.08
2019-04-14T02:58:34.643Z,36.70
2019-04-14T03:01:03.980Z,36.50
2019-04-14T03:06:10.386Z,36.40
2019-04-14T03:08:26.113Z,35.63
2019-04-14T03:10:53.973Z,37.67
2019-04-14T03:15:58.891Z,35.60
2019-04-14T03:18:39.615Z,33.95
2019-04-14T03:21:21.287Z,33.67
2019-04-14T03:26:45.027Z,35.83
2019-04-14T03:29:24.772Z,35.68
2019-04-14T03:34:34.158Z,34.67
2019-04-14T03:39:24.906Z,35.17
2019-04-14T03:44:25.777Z,37.08
2019-04-14T03:46:50.740Z,35.13
2019-04-14T03:49:24.863Z,35.58
2019-04-14T03:51:50.626Z,33.08
2019-04-14T03:54:15.922Z,34.38
2019-04-14T03:56:46.697Z,33.75
2019-04-14T03:59:15.802Z,31.52
2019-04-14T04:01:44.088Z,32.08
2019-04-14T04:04:12.316Z,32.08
2019-04-14T04:06:40.527Z,29.90
2019-04-14T04:09:08.748Z,30.08
2019-04-14T04:11:37.020Z,32.17
2019-04-14T04:14:05.323Z,30.00
2019-04-14T04:16:35.536Z,29.82
2019-04-14T04:19:12.998Z,30.30
2019-04-14T04:21:55.870Z,30.27
2019-04-14T04:24:43.304Z,29.23
2019-04-14T04:27:20.052Z,27.70
2019-04-14T04:29:59.232Z,29.02
2019-04-14T04:32:29.765Z,28.52
2019-04-14T04:35:02.697Z,28.98
2019-04-14T04:37:35.435Z,27.93
2019-04-14T04:40:15.781Z,28.92
2019-04-14T04:42:44.000Z,27.82
2019-04-14T04:45:12.767Z,27.48
2019-04-14T04:47:41.096Z,26.82
2019-04-14T04:50:09.308Z,28.00
2019-04-14T04:52:38.565Z,26.60
2019-04-14T04:55:06.854Z,25.80
2019-04-14T04:57:35.205Z,27.00
2019-04-14T05:00:05.443Z,26.17
2019-04-14T05:02:33.640Z,25.68
2019-04-14T05:05:03.417Z,26.20
2019-04-14T05:07:31.796Z,25.70
2019-04-14T05:10:02.655Z,24.63
2019-04-14T05:12:32.769Z,25.00
2019-04-14T05:15:03.566Z,25.80
2019-04-14T05:17:34.269Z,24.10
2019-04-14T05:20:03.216Z,25.12
2019-04-14T05:22:31.671Z,24.40
2019-04-14T05:24:59.880Z,25.08
2019-04-14T05:27:28.087Z,24.50
2019-04-14T05:29:56.296Z,23.67
2019-04-14T05:32:24.520Z,24.25
2019-04-14T05:34:52.742Z,23.62
2019-04-14T05:37:20.942Z,24.23
2019-04-14T05:39:50.408Z,24.18
2019-04-14T05:42:22.074Z,23.95
2019-04-14T05:44:49.437Z,24.52
2019-04-14T05:47:17.751Z,20.77
2019-04-14T05:49:50.087Z,21.40
2019-04-14T05:52:16.359Z,22.60
2019-04-14T05:54:44.789Z,21.85
2019-04-14T05:57:13.394Z,21.93
2019-04-14T05:59:41.866Z,21.70
2019-04-14T06:02:10.147Z,20.92
2019-04-14T06:04:39.562Z,21.60
2019-04-14T06:07:07.952Z,20.43
2019-04-14T06:09:36.183Z,21.82
2019-04-14T06:12:04.379Z,21.00
2019-04-14T06:14:32.588Z,19.77
2019-04-14T06:17:00.788Z,21.48
2019-04-14T06:19:37.080Z,20.35
2019-04-14T06:21:58.963Z,20.75
2019-04-14T06:24:27.181Z,20.10
2019-04-14T06:26:55.376Z,19.05
2019-04-14T06:29:23.595Z,20.65
2019-04-14T06:31:53.456Z,18.90
2019-04-14T06:34:23.332Z,19.87
2019-04-14T06:36:53.192Z,18.12
2019-04-14T06:39:23.033Z,18.80
2019-04-14T06:41:51.247Z,19.17
2019-04-14T06:44:19.499Z,17.77
2019-04-14T06:46:47.730Z,18.32
2019-04-14T06:49:15.930Z,16.65
2019-04-14T06:51:44.154Z,15.78
2019-04-14T06:54:12.385Z,17.62
2019-04-14T06:56:40.600Z,17.60
2019-04-14T06:59:08.807Z,17.60
2019-04-14T07:01:39.031Z,16.87
2019-04-14T07:04:06.981Z,17.48
2019-04-14T07:06:35.191Z,17.30
2019-04-14T07:09:03.972Z,16.35
2019-04-14T07:11:32.199Z,14.93
2019-04-14T07:14:00.494Z,16.20
2019-04-14T07:16:28.717Z,15.53
2019-04-14T07:18:56.931Z,16.48
2019-04-14T07:21:25.147Z,16.25
2019-04-14T07:23:53.380Z,16.93
2019-04-14T07:26:21.588Z,15.30
2019-04-14T07:28:56.640Z,15.75
2019-04-14T07:31:27.382Z,15.32
2019-04-14T07:34:03.205Z,15.00
2019-04-14T07:36:33.047Z,15.25
2019-04-14T07:39:05.674Z,14.58
2019-04-14T07:41:44.552Z,14.00
2019-04-14T07:44:29.537Z,13.20
2019-04-14T07:46:59.400Z,14.43
2019-04-14T07:49:38.216Z,13.70
2019-04-14T07:52:08.060Z,13.72
2019-04-14T07:54:41.417Z,13.98
2019-04-14T07:57:23.508Z,14.78
2019-04-14T07:59:53.455Z,14.55
2019-04-14T08:02:29.320Z,13.62
2019-04-14T08:05:01.942Z,13.50
2019-04-14T08:07:30.161Z,13.98
2019-04-14T08:09:58.364Z,13.38
2019-04-14T08:12:26.598Z,13.88
2019-04-14T08:14:54.844Z,13.28
2019-04-14T08:17:23.101Z,13.00
2019-04-14T08:19:51.312Z,13.15
2019-04-14T08:22:19.545Z,14.15
2019-04-14T08:24:47.760Z,13.83
2019-04-14T08:27:15.982Z,14.35
2019-04-14T08:29:44.192Z,15.30
2019-04-14T08:32:12.400Z,14.63
2019-04-14T08:34:40.620Z,14.65
2019-04-14T08:37:08.843Z,14.45
2019-04-14T08:39:37.108Z,14.78
2019-04-14T08:42:16.126Z,14.68
2019-04-14T08:44:45.995Z,14.80
2019-04-14T08:47:27.914Z,14.20
2019-04-14T08:49:57.789Z,13.58
2019-04-14T08:52:27.659Z,14.73
2019-04-14T08:54:57.500Z,14.15
2019-04-14T08:57:43.596Z,14.25
2019-04-14T09:00:13.476Z,14.33
2019-04-14T09:02:43.319Z,14.43
2019-04-14T09:05:29.451Z,14.78
2019-04-14T09:08:02.392Z,13.93
2019-04-14T09:10:32.248Z,13.13
2019-04-14T09:13:00.475Z,13.22
2019-04-14T09:15:28.684Z,13.35
2019-04-14T09:17:56.931Z,13.93
2019-04-14T09:20:25.136Z,14.33
2019-04-14T09:22:53.527Z,13.88
2019-04-14T09:25:21.744Z,13.48
2019-04-14T09:27:49.981Z,13.13
2019-04-14T09:30:18.554Z,13.40
2019-04-14T09:32:46.764Z,13.48
2019-04-14T09:35:14.992Z,13.40
2019-04-14T09:37:43.232Z,13.75
2019-04-14T09:40:11.448Z,13.60
2019-04-14T09:42:39.659Z,13.05
2019-04-14T09:45:07.884Z,13.45
2019-04-14T09:47:36.092Z,13.08
2019-04-14T09:50:05.648Z,12.98
2019-04-14T09:52:33.875Z,12.83
2019-04-14T09:55:02.149Z,12.28
2019-04-14T09:57:30.351Z,11.57
2019-04-14T09:59:58.570Z,12.90
2019-04-14T10:02:26.786Z,12.93
2019-04-14T10:04:55.011Z,11.95
2019-04-14T10:07:23.283Z,11.45
2019-04-14T10:09:51.533Z,11.50
2019-04-14T10:12:19.816Z,11.68
2019-04-14T10:14:48.040Z,11.97
2019-04-14T10:17:16.265Z,12.78
2019-04-14T10:19:44.566Z,12.20
2019-04-14T10:22:12.802Z,12.63
2019-04-14T10:24:41.004Z,12.60
2019-04-14T10:27:09.219Z,12.45
2019-04-14T10:29:37.428Z,12.03
2019-04-14T10:32:05.707Z,12.50
2019-04-14T10:34:33.895Z,11.45
2019-04-14T10:37:02.118Z,12.63
2019-04-14T10:39:30.343Z,12.10
2019-04-14T10:41:58.546Z,11.85
2019-04-14T10:44:26.920Z,11.60
2019-04-14T10:46:55.128Z,12.58
2019-04-14T10:49:23.345Z,11.43
2019-04-14T10:51:51.568Z,11.40
2019-04-14T10:54:19.789Z,12.23
2019-04-14T10:56:48.000Z,12.13
2019-04-14T10:59:16.245Z,11.40
2019-04-14T11:01:44.473Z,12.07
2019-04-14T11:04:12.688Z,11.63
2019-04-14T11:06:42.600Z,11.75
2019-04-14T11:09:12.458Z,11.68
2019-04-14T11:11:40.683Z,12.85
2019-04-14T11:14:08.883Z,12.25
2019-04-14T11:16:37.091Z,12.75
2019-04-14T11:19:05.313Z,13.55
2019-04-14T11:21:42.384Z,13.78
2019-04-14T11:24:03.477Z,12.45
2019-04-14T11:26:31.684Z,13.30
2019-04-14T11:28:59.900Z,13.10
2019-04-14T11:31:46.455Z,13.45
2019-04-14T11:34:16.319Z,13.35
2019-04-14T11:37:01.219Z,13.62
2019-04-14T11:39:29.546Z,13.53
2019-04-14T11:41:57.831Z,14.40
2019-04-14T11:44:26.075Z,14.58
2019-04-14T11:46:54.282Z,13.38
2019-04-14T11:49:22.498Z,14.23
2019-04-14T11:51:55.529Z,13.32
2019-04-14T11:54:20.674Z,13.98
2019-04-14T11:56:48.917Z,13.30
2019-04-14T11:59:18.751Z,12.82
2019-04-14T12:02:00.904Z,12.82
2019-04-14T12:04:30.768Z,12.25
2019-04-14T12:07:17.164Z,11.40
2019-04-14T12:09:47.018Z,11.97
2019-04-14T12:12:15.314Z,12.58
2019-04-14T12:14:43.520Z,12.88
2019-04-14T12:17:11.744Z,12.73
2019-04-14T12:19:39.973Z,12.13
2019-04-14T12:22:08.824Z,12.37
2019-04-14T12:24:37.298Z,12.23
2019-04-14T12:27:05.514Z,12.50
2019-04-14T12:29:34.814Z,12.37
2019-04-14T12:32:03.954Z,12.37
2019-04-14T12:34:32.389Z,12.82
2019-04-14T12:37:00.665Z,14.53
2019-04-14T12:39:28.992Z,14.98
2019-04-14T12:42:17.187Z,14.23
2019-04-14T12:44:49.509Z,14.58
2019-04-14T12:47:25.332Z,13.72
2019-04-14T12:49:55.200Z,13.70
2019-04-14T12:52:25.064Z,13.70
2019-04-14T12:54:53.314Z,13.05
2019-04-14T12:57:38.574Z,12.88
2019-04-14T13:00:08.423Z,12.33
2019-04-14T13:02:40.925Z,11.50
2019-04-14T13:05:09.613Z,10.68
2019-04-14T13:07:37.836Z,12.30
2019-04-14T13:10:07.029Z,12.55
2019-04-14T13:12:35.251Z,11.48
2019-04-14T13:15:05.130Z,12.05
2019-04-14T13:17:33.349Z,12.37
2019-04-14T13:20:01.574Z,11.68
2019-04-14T13:22:34.236Z,11.48
2019-04-14T13:24:59.735Z,11.70
2019-04-14T13:27:27.975Z,12.00
2019-04-14T13:29:56.188Z,10.82
2019-04-14T13:32:35.344Z,11.28
2019-04-14T13:34:54.397Z,10.53
2019-04-14T13:37:22.620Z,11.35
2019-04-14T13:39:50.831Z,10.20
2019-04-14T13:42:19.072Z,9.25
2019-04-14T13:44:47.273Z,8.90
2019-04-14T13:47:15.504Z,9.40
2019-04-14T13:49:43.715Z,9.63
2019-04-14T13:52:11.963Z,9.85
2019-04-14T13:54:40.252Z,8.70
2019-04-14T13:57:08.447Z,8.73
2019-04-14T13:59:36.681Z,8.13
2019-04-14T14:02:04.971Z,8.63
2019-04-14T14:04:33.209Z,8.63
2019-04-14T14:07:01.447Z,7.85
2019-04-14T14:09:29.664Z,8.18
2019-04-14T14:12:05.567Z,8.85
2019-04-14T14:14:44.563Z,9.20
2019-04-14T14:17:30.696Z,8.95
2019-04-14T14:20:09.434Z,9.40
2019-04-14T14:22:59.654Z,9.25
2019-04-14T14:25:27.398Z,9.73
2019-04-14T14:27:55.588Z,10.38
2019-04-14T14:30:23.810Z,10.60
2019-04-14T14:32:52.036Z,10.82
2019-04-14T14:35:20.276Z,11.03
2019-04-14T14:37:48.517Z,10.05
2019-04-14T14:40:16.749Z,10.85
2019-04-14T14:42:44.939Z,11.00
2019-04-14T14:45:14.809Z,10.82
2019-04-14T14:47:44.673Z,10.53
2019-04-14T14:50:32.887Z,11.48
2019-04-14T14:53:11.625Z,11.68
2019-04-14T14:55:31.052Z,12.20
2019-04-14T14:57:59.266Z,13.35
2019-04-14T15:00:29.144Z,13.53
2019-04-14T15:02:57.360Z,12.40
2019-04-14T15:05:25.577Z,13.13
2019-04-14T15:07:53.798Z,14.30
2019-04-14T15:10:22.165Z,13.80
2019-04-14T15:12:50.441Z,15.88
2019-04-14T15:15:18.652Z,14.58
2019-04-14T15:17:47.043Z,14.18
2019-04-14T15:20:15.319Z,14.58
2019-04-14T15:22:43.538Z,15.18
2019-04-14T15:25:11.764Z,14.75
2019-04-14T15:27:39.976Z,14.53
2019-04-14T15:30:10.073Z,15.35
2019-04-14T15:32:38.345Z,13.68
2019-04-14T15:35:06.578Z,13.88
2019-04-14T15:37:34.788Z,13.53
2019-04-14T15:40:03.459Z,12.65
2019-04-14T15:42:31.682Z,13.78
2019-04-14T15:44:59.905Z,13.80
2019-04-14T15:47:28.747Z,13.72
2019-04-14T15:49:57.005Z,14.50
2019-04-14T15:52:25.212Z,14.33
2019-04-14T15:54:53.420Z,14.60
2019-04-14T15:57:29.332Z,15.00
2019-04-14T15:59:59.176Z,15.43
2019-04-14T16:02:32.300Z,15.83
2019-04-14T16:05:04.830Z,16.05
2019-04-14T16:07:46.901Z,16.15
2019-04-14T16:10:16.737Z,16.12
2019-04-14T16:12:49.298Z,16.77
2019-04-14T16:15:25.220Z,16.02
2019-04-14T16:17:58.096Z,16.65
2019-04-14T16:20:31.345Z,16.57
2019-04-14T16:22:59.573Z,17.40
2019-04-14T16:25:29.442Z,18.45
2019-04-14T16:27:59.313Z,17.57
2019-04-14T16:30:32.120Z,17.80
2019-04-14T16:33:20.024Z,17.95
2019-04-14T16:35:48.816Z,17.45
2019-04-14T16:38:17.056Z,18.17
2019-04-14T16:40:45.274Z,18.10
2019-04-14T16:43:13.499Z,17.82
2019-04-14T16:45:41.692Z,16.82
2019-04-14T16:48:09.917Z,17.12
2019-04-14T16:50:38.144Z,17.45
2019-04-14T16:53:19.701Z,17.50
2019-04-14T16:55:52.728Z,17.40
2019-04-14T16:58:22.603Z,17.95
2019-04-14T17:01:01.631Z,17.17
2019-04-14T17:03:29.845Z,17.82
2019-04-14T17:05:58.307Z,18.35
2019-04-14T17:08:26.513Z,18.35
2019-04-14T17:10:54.988Z,17.73
2019-04-14T17:13:24.915Z,16.32
2019-04-14T17:15:54.771Z,17.57
2019-04-14T17:18:27.339Z,16.10
2019-04-14T17:21:00.111Z,16.60
2019-04-14T17:23:41.972Z,16.40
2019-04-14T17:26:11.828Z,15.48
2019-04-14T17:28:56.878Z,17.60
2019-04-14T17:31:35.208Z,17.67
2019-04-14T17:34:07.529Z,15.18
2019-04-14T17:36:39.813Z,14.87
2019-04-14T17:39:09.708Z,15.10
2019-04-14T17:41:48.723Z,16.05
2019-04-14T17:44:24.429Z,15.35
2019-04-14T17:47:03.139Z,14.70
2019-04-14T17:49:38.839Z,14.15
2019-04-14T17:52:25.238Z,16.10
2019-04-14T17:54:57.692Z,13.80
2019-04-14T17:57:43.522Z,12.47
2019-04-14T18:00:16.350Z,12.30
2019-04-14T18:02:49.086Z,13.70
2019-04-14T18:05:18.953Z,12.45
2019-04-14T18:07:57.896Z,13.03
2019-04-14T18:10:27.752Z,11.85
2019-04-14T18:13:09.621Z,12.07
2019-04-14T18:15:42.182Z,12.37
2019-04-14T18:18:14.990Z,11.25
2019-04-14T18:20:44.884Z,11.25
2019-04-14T18:23:13.167Z,13.68
2019-04-14T18:25:41.375Z,12.03
2019-04-14T18:28:31.242Z,10.85
2019-04-14T18:31:01.076Z,10.03
2019-04-14T18:34:08.486Z,10.10
2019-04-14T18:36:54.759Z,9.95
2019-04-14T18:39:33.168Z,9.95
2019-04-14T18:42:11.829Z,9.98
2019-04-14T18:44:42.052Z,9.90
2019-04-14T18:47:26.792Z,9.53
2019-04-14T18:49:56.713Z,9.45
2019-04-14T18:52:26.609Z,8.68
2019-04-14T18:54:56.576Z,8.75
2019-04-14T18:57:29.157Z,8.65
2019-04-14T18:59:59.092Z,8.00
2019-04-14T19:02:27.375Z,9.00
2019-04-14T19:04:55.563Z,8.38
2019-04-14T19:07:23.829Z,8.20
2019-04-14T19:09:52.032Z,8.03
2019-04-14T19:12:21.915Z,8.28
2019-04-14T19:14:51.740Z,8.38
2019-04-14T19:17:27.670Z,7.97
2019-04-14T19:20:01.903Z,7.83
2019-04-14T19:22:27.688Z,7.47
2019-04-14T19:25:07.482Z,7.47
2019-04-14T19:27:25.962Z,7.83
2019-04-14T19:29:54.178Z,7.03
2019-04-14T19:32:22.388Z,8.48
2019-04-14T19:34:50.735Z,8.00
2019-04-14T19:37:19.013Z,7.40
2019-04-14T19:39:47.234Z,7.45
2019-04-14T19:42:15.457Z,6.87
2019-04-14T19:44:43.669Z,7.25
2019-04-14T19:47:11.888Z,6.60
2019-04-14T19:49:40.163Z,7.20
2019-04-14T19:52:08.407Z,6.65
2019-04-14T19:54:37.482Z,6.80
2019-04-14T19:57:05.706Z,6.78
2019-04-14T19:59:33.907Z,6.90
2019-04-14T20:02:02.107Z,6.28
2019-04-14T20:04:30.320Z,6.67
2019-04-14T20:06:58.543Z,6.45
2019-04-14T20:09:26.772Z,6.33
2019-04-14T20:11:54.973Z,5.95
2019-04-14T20:14:23.264Z,6.20
2019-04-14T20:16:58.792Z,6.28
2019-04-14T20:19:44.948Z,6.50
2019-04-14T20:22:29.992Z,6.62
2019-04-14T20:25:02.778Z,5.85
2019-04-14T20:27:32.683Z,6.87
2019-04-14T20:30:09.016Z,6.62
2019-04-14T20:32:40.877Z,6.53
2019-04-14T20:35:09.468Z,6.58
2019-04-14T20:37:37.902Z,6.47
2019-04-14T20:40:09.542Z,6.58
2019-04-14T20:42:39.411Z,7.35
2019-04-14T20:45:08.450Z,8.85
2019-04-14T20:47:37.352Z,8.23
2019-04-14T20:50:07.305Z,8.10
2019-04-14T20:52:35.866Z,9.35
2019-04-14T20:55:07.588Z,8.20
2019-04-14T20:57:36.479Z,9.00
2019-04-14T21:00:05.993Z,9.00
2019-04-14T21:02:36.214Z,8.80
2019-04-14T21:05:26.236Z,10.43
2019-04-14T21:08:12.344Z,9.83
2019-04-14T21:10:42.218Z,9.38
2019-04-14T21:13:18.784Z,10.75
2019-04-14T21:15:51.268Z,10.48
2019-04-14T21:18:21.151Z,10.78
2019-04-14T21:20:59.765Z,11.22
2019-04-14T21:23:38.732Z,11.57
2019-04-14T21:26:11.406Z,11.33
2019-04-14T21:28:46.800Z,10.53
2019-04-14T21:31:22.429Z,11.55
2019-04-14T21:33:55.183Z,10.82
2019-04-14T21:36:27.910Z,10.82
2019-04-14T21:38:57.771Z,10.60
2019-04-14T21:41:27.725Z,10.98
2019-04-14T21:43:55.933Z,11.22
2019-04-14T21:46:24.152Z,10.98
2019-04-14T21:48:52.416Z,10.53
2019-04-14T21:51:24.984Z,12.37
2019-04-14T21:53:53.236Z,11.48
2019-04-14T21:56:22.933Z,11.60
2019-04-14T21:58:52.788Z,11.83
2019-04-14T22:01:43.784Z,12.53
2019-04-14T22:04:30.220Z,11.65
2019-04-14T22:07:00.097Z,11.83
2019-04-14T22:09:32.536Z,11.63
2019-04-14T22:12:02.403Z,12.90
2019-04-14T22:14:30.613Z,11.57
2019-04-14T22:16:58.835Z,12.40
2019-04-14T22:19:27.111Z,12.43
2019-04-14T22:21:55.321Z,13.18
2019-04-14T22:24:23.543Z,12.55
2019-04-14T22:26:51.756Z,11.50
2019-04-14T22:29:19.993Z,10.60
2019-04-14T22:31:48.215Z,12.53
2019-04-14T22:34:16.437Z,12.60
2019-04-14T22:36:44.662Z,13.32
2019-04-14T22:39:16.999Z,12.75
2019-04-14T22:41:45.238Z,12.37
2019-04-14T22:44:13.532Z,12.65
2019-04-14T22:46:41.738Z,11.93
2019-04-14T22:49:09.988Z,12.30
2019-04-14T22:51:38.220Z,13.22
2019-04-14T22:54:06.411Z,13.15
2019-04-14T22:56:39.440Z,12.07
2019-04-14T22:59:04.712Z,12.65
2019-04-14T23:01:34.545Z,13.40
2019-04-14T23:04:10.631Z,13.98
2019-04-14T23:06:58.773Z,12.88
2019-04-14T23:09:28.662Z,14.45
2019-04-14T23:12:16.705Z,13.68
2019-04-14T23:14:52.503Z,13.85
2019-04-14T23:17:37.449Z,12.80
2019-04-14T23:20:08.760Z,12.43
2019-04-14T23:22:41.504Z,13.72
2019-04-14T23:25:09.729Z,14.73
2019-04-14T23:27:37.973Z,14.78
2019-04-14T23:30:06.287Z,14.07
2019-04-14T23:32:34.550Z,15.25
2019-04-14T23:35:02.908Z,15.03
2019-04-14T23:37:31.129Z,14.63
2019-04-14T23:39:59.360Z,15.88
2019-04-14T23:42:27.594Z,15.78
2019-04-14T23:44:55.808Z,15.15
2019-04-14T23:47:24.020Z,16.17
2019-04-14T23:49:52.278Z,15.40
2019-04-14T23:52:20.502Z,16.67
2019-04-14T23:54:48.736Z,16.35
2019-04-14T23:57:16.971Z,16.73
2019-04-14T23:59:45.201Z,17.12
